createdAt,value
2022-09-09T00:02:28.732Z,4.50
2022-09-09T00:05:45.558Z,4.43
2022-09-09T00:09:02.425Z,5.35
2022-09-09T00:12:24.133Z,4.53
2022-09-09T00:15:42.026Z,6.25
2022-09-09T00:19:04.795Z,4.18
2022-09-09T00:22:21.974Z,4.55
2022-09-09T00:25:38.690Z,5.85
2022-09-09T00:28:53.800Z,4.10
2022-09-09T00:32:01.310Z,4.68
2022-09-09T00:35:19.672Z,4.27
2022-09-09T00:38:42.597Z,4.53
2022-09-09T00:42:03.223Z,4.47
2022-09-09T00:45:10.996Z,4.28
2022-09-09T00:48:13.458Z,3.75
2022-09-09T00:51:32.112Z,4.15
2022-09-09T00:55:09.174Z,4.35
2022-09-09T00:58:11.266Z,3.40
2022-09-09T01:01:14.335Z,3.15
2022-09-09T01:04:30.197Z,4.10
2022-09-09T01:07:33.460Z,3.90
2022-09-09T01:11:04.584Z,4.00
2022-09-09T01:14:26.815Z,3.30
2022-09-09T01:17:36.764Z,3.97
2022-09-09T01:20:58.079Z,4.65
2022-09-09T01:24:17.883Z,3.58
2022-09-09T01:27:52.237Z,3.65
2022-09-09T01:30:56.170Z,3.83
2022-09-09T01:34:02.303Z,3.83
2022-09-09T01:37:08.451Z,3.97
2022-09-09T01:40:10.608Z,3.92
2022-09-09T01:43:14.341Z,4.10
2022-09-09T01:46:17.649Z,4.22
2022-09-09T01:49:19.912Z,4.03
2022-09-09T01:52:22.706Z,3.38
2022-09-09T01:55:38.623Z,3.20
2022-09-09T01:59:12.679Z,3.75
2022-09-09T02:02:43.313Z,3.75
2022-09-09T02:06:10.196Z,3.53
2022-09-09T02:09:14.175Z,3.45
2022-09-09T02:12:23.705Z,4.35
2022-09-09T02:15:55.794Z,3.13
2022-09-09T02:19:10.207Z,4.03
2022-09-09T02:22:25.413Z,4.13
2022-09-09T02:25:33.555Z,4.85
2022-09-09T02:28:45.779Z,4.45
2022-09-09T02:31:50.970Z,4.32
2022-09-09T02:35:02.051Z,3.65
2022-09-09T02:38:10.253Z,3.38
2022-09-09T02:41:13.009Z,4.43
2022-09-09T02:44:19.094Z,4.18
2022-09-09T02:47:30.962Z,4.53
2022-09-09T02:50:59.621Z,4.00
2022-09-09T02:54:18.112Z,4.45
2022-09-09T02:57:32.208Z,4.40
2022-09-09T03:00:37.058Z,4.35
2022-09-09T03:03:39.494Z,3.97
2022-09-09T03:06:45.923Z,4.22
2022-09-09T03:09:55.122Z,5.22
2022-09-09T03:12:59.314Z,3.95
2022-09-09T03:16:05.055Z,4.97
2022-09-09T03:19:10.829Z,4.25
2022-09-09T03:22:14.876Z,4.20
2022-09-09T03:25:19.567Z,4.53
2022-09-09T03:28:22.515Z,4.68
2022-09-09T03:31:26.706Z,4.28
2022-09-09T03:34:28.926Z,4.10
2022-09-09T03:37:33.881Z,5.65
2022-09-09T03:40:36.355Z,4.82
2022-09-09T03:43:38.776Z,5.03
2022-09-09T03:46:40.953Z,5.10
2022-09-09T03:49:43.010Z,5.13
2022-09-09T03:52:45.461Z,4.60
2022-09-09T03:55:56.354Z,4.32
2022-09-09T03:59:00.578Z,5.47
2022-09-09T04:02:03.902Z,4.60
2022-09-09T04:05:08.102Z,4.32
2022-09-09T04:08:10.223Z,5.30
2022-09-09T04:11:12.379Z,4.75
2022-09-09T04:14:14.729Z,4.75
2022-09-09T04:17:17.328Z,4.88
2022-09-09T04:20:20.537Z,5.63
2022-09-09T04:23:22.647Z,4.40
2022-09-09T04:26:25.144Z,5.85
2022-09-09T04:29:27.869Z,5.00
2022-09-09T04:32:30.051Z,5.05
2022-09-09T04:35:32.075Z,5.57
2022-09-09T04:38:34.181Z,6.63
2022-09-09T04:41:37.059Z,6.47
2022-09-09T04:44:40.431Z,10.82
2022-09-09T04:47:42.563Z,9.52
2022-09-09T04:50:44.762Z,9.25
2022-09-09T04:53:48.763Z,6.68
2022-09-09T04:56:52.428Z,5.38
2022-09-09T04:59:54.557Z,8.15
2022-09-09T05:02:57.097Z,5.93
2022-09-09T05:06:09.510Z,5.20
2022-09-09T05:12:30.382Z,6.93
2022-09-09T05:15:32.633Z,6.18
2022-09-09T05:18:34.835Z,5.88
2022-09-09T05:21:37.155Z,6.53
2022-09-09T05:24:39.848Z,6.40
2022-09-09T05:27:42.678Z,5.28
2022-09-09T05:30:44.808Z,5.25
2022-09-09T05:33:49.236Z,4.47
2022-09-09T05:36:53.159Z,5.75
2022-09-09T05:39:57.307Z,4.78
2022-09-09T05:43:01.436Z,5.20
2022-09-09T05:46:07.539Z,4.85
2022-09-09T05:49:09.722Z,4.32
2022-09-09T05:52:12.282Z,3.95
2022-09-09T05:55:14.958Z,4.30
2022-09-09T05:58:17.955Z,4.38
2022-09-09T06:01:23.085Z,5.07
2022-09-09T06:04:25.453Z,4.00
2022-09-09T06:07:27.482Z,4.22
2022-09-09T06:10:30.014Z,5.47
2022-09-09T06:13:32.751Z,3.38
2022-09-09T06:16:36.017Z,3.92
2022-09-09T06:19:38.354Z,4.70
2022-09-09T06:22:42.160Z,3.90
2022-09-09T06:25:44.414Z,3.72
2022-09-09T06:28:51.207Z,3.40
2022-09-09T06:31:53.333Z,3.55
2022-09-09T06:34:57.683Z,3.85
2022-09-09T06:38:00.518Z,3.88
2022-09-09T06:41:02.977Z,2.97
2022-09-09T06:44:05.839Z,3.22
2022-09-09T06:47:15.138Z,3.17
2022-09-09T06:50:19.252Z,3.33
2022-09-09T06:53:23.234Z,3.88
2022-09-09T06:56:29.854Z,3.20
2022-09-09T06:59:33.749Z,3.10
2022-09-09T07:02:40.230Z,3.90
2022-09-09T07:05:43.381Z,3.67
2022-09-09T07:08:56.283Z,4.35
2022-09-09T07:12:02.002Z,3.38
2022-09-09T07:15:09.736Z,3.00
2022-09-09T07:18:11.821Z,4.03
2022-09-09T07:21:15.549Z,3.35
2022-09-09T07:24:18.300Z,3.08
2022-09-09T07:27:22.292Z,3.78
2022-09-09T07:30:27.817Z,3.50
2022-09-09T07:33:34.426Z,3.42
2022-09-09T07:36:39.268Z,3.22
2022-09-09T07:39:43.416Z,3.05
2022-09-09T07:42:45.615Z,3.28
2022-09-09T07:45:48.216Z,3.22
2022-09-09T07:48:57.780Z,2.95
2022-09-09T07:52:04.581Z,3.55
2022-09-09T07:55:07.627Z,3.35
2022-09-09T07:58:09.712Z,2.55
2022-09-09T08:01:19.092Z,2.78
2022-09-09T08:04:22.868Z,3.35
2022-09-09T08:07:26.235Z,3.15
2022-09-09T08:10:30.319Z,3.63
2022-09-09T08:13:34.952Z,2.92
2022-09-09T08:16:43.015Z,3.15
2022-09-09T08:19:46.835Z,2.50
2022-09-09T08:22:53.923Z,3.08
2022-09-09T08:25:56.002Z,2.80
2022-09-09T08:29:00.135Z,2.78
2022-09-09T08:32:03.495Z,3.72
2022-09-09T08:35:08.420Z,3.20
2022-09-09T08:38:11.254Z,3.22
2022-09-09T08:41:35.912Z,3.30
2022-09-09T08:44:49.031Z,3.00
2022-09-09T08:47:56.259Z,2.97
2022-09-09T08:51:03.243Z,2.47
2022-09-09T08:54:11.178Z,2.42
2022-09-09T08:57:22.845Z,3.55
2022-09-09T09:00:34.205Z,3.15
2022-09-09T09:03:48.667Z,3.15
2022-09-09T09:07:15.210Z,2.85
2022-09-09T09:10:44.287Z,2.80
2022-09-09T09:14:03.919Z,3.22
2022-09-09T09:17:14.048Z,2.97
2022-09-09T09:20:17.546Z,3.63
2022-09-09T09:23:25.245Z,3.50
2022-09-09T09:26:36.233Z,2.80
2022-09-09T09:30:10.610Z,3.15
2022-09-09T09:33:41.931Z,3.53
2022-09-09T09:36:48.182Z,2.70
2022-09-09T09:40:08.529Z,3.80
2022-09-09T09:43:23.019Z,3.17
2022-09-09T09:46:26.956Z,3.33
2022-09-09T09:49:34.136Z,3.40
2022-09-09T09:52:37.921Z,3.00
2022-09-09T09:55:52.577Z,3.30
2022-09-09T09:58:56.037Z,3.33
2022-09-09T10:02:26.811Z,3.53
2022-09-09T10:05:37.410Z,3.72
2022-09-09T10:08:50.480Z,4.50
2022-09-09T10:12:16.906Z,3.42
2022-09-09T10:15:45.721Z,3.22
2022-09-09T10:19:02.879Z,3.25
2022-09-09T10:22:31.470Z,3.60
2022-09-09T10:25:59.811Z,4.10
2022-09-09T10:29:22.404Z,3.22
2022-09-09T10:32:27.509Z,3.40
2022-09-09T10:35:37.974Z,3.17
2022-09-09T10:38:44.611Z,3.30
2022-09-09T10:42:03.435Z,5.32
2022-09-09T10:45:44.023Z,3.45
2022-09-09T10:48:57.975Z,3.63
2022-09-09T10:52:16.409Z,4.25
2022-09-09T10:55:23.140Z,3.95
2022-09-09T10:58:50.446Z,3.22
2022-09-09T11:02:02.750Z,3.58
2022-09-09T11:05:21.319Z,3.20
2022-09-09T11:08:27.379Z,2.90
2022-09-09T11:11:52.791Z,3.55
2022-09-09T11:15:08.441Z,4.13
2022-09-09T11:18:20.488Z,2.83
2022-09-09T11:21:45.897Z,3.63
2022-09-09T11:24:56.045Z,3.42
2022-09-09T11:28:20.459Z,3.78
2022-09-09T11:31:32.375Z,4.20
2022-09-09T11:34:57.809Z,4.95
2022-09-09T11:38:46.321Z,3.67
2022-09-09T11:41:48.336Z,3.83
2022-09-09T11:44:50.827Z,5.22
2022-09-09T11:47:55.869Z,3.72
2022-09-09T11:51:10.999Z,4.05
2022-09-09T11:54:49.360Z,4.10
2022-09-09T11:58:16.505Z,3.97
2022-09-09T12:01:44.033Z,4.28
2022-09-09T12:04:57.349Z,4.07
2022-09-09T12:08:01.740Z,3.95
2022-09-09T12:11:06.598Z,3.38
2022-09-09T12:14:40.025Z,4.47
2022-09-09T12:17:46.114Z,4.07
2022-09-09T12:21:03.759Z,4.30
2022-09-09T12:24:14.243Z,3.95
2022-09-09T12:27:29.805Z,4.80
2022-09-09T12:30:57.339Z,4.03
2022-09-09T12:34:20.196Z,3.85
2022-09-09T12:37:40.919Z,4.25
2022-09-09T12:40:42.940Z,4.10
2022-09-09T12:43:44.997Z,3.85
2022-09-09T12:46:47.743Z,4.22
2022-09-09T12:49:51.171Z,4.30
2022-09-09T12:52:56.636Z,4.55
2022-09-09T12:56:04.487Z,4.45
2022-09-09T12:59:06.574Z,5.20
2022-09-09T13:02:29.177Z,3.70
2022-09-09T13:05:42.863Z,4.50
2022-09-09T13:08:45.224Z,4.70
2022-09-09T13:11:54.221Z,5.07
2022-09-09T13:14:58.002Z,4.93
2022-09-09T13:18:06.251Z,4.55
2022-09-09T13:21:08.711Z,4.68
2022-09-09T13:24:34.108Z,4.30
2022-09-09T13:27:41.500Z,4.60
2022-09-09T13:30:45.218Z,5.03
2022-09-09T13:33:47.469Z,4.45
2022-09-09T13:36:50.365Z,4.85
2022-09-09T13:39:54.468Z,4.68
2022-09-09T13:42:59.115Z,4.55
2022-09-09T13:46:07.427Z,4.65
2022-09-09T13:49:12.410Z,4.78
2022-09-09T13:52:18.015Z,5.53
2022-09-09T13:55:25.670Z,5.00
2022-09-09T13:58:28.468Z,5.65
2022-09-09T14:01:31.153Z,5.75
2022-09-09T14:04:33.430Z,5.75
2022-09-09T14:07:35.580Z,5.13
2022-09-09T14:10:38.202Z,6.75
2022-09-09T14:13:40.370Z,6.20
2022-09-09T14:16:42.667Z,6.13
2022-09-09T14:19:46.253Z,6.03
2022-09-09T14:22:48.527Z,6.10
2022-09-09T14:25:50.545Z,6.38
2022-09-09T14:28:55.963Z,5.68
2022-09-09T14:31:58.278Z,5.78
2022-09-09T14:35:00.485Z,5.40
2022-09-09T14:38:02.529Z,5.55
2022-09-09T14:41:04.568Z,5.05
2022-09-09T14:44:06.667Z,5.75
2022-09-09T14:47:09.695Z,5.93
2022-09-09T14:50:13.582Z,4.75
2022-09-09T14:53:18.135Z,4.85
2022-09-09T14:56:23.270Z,6.20
2022-09-09T14:59:25.453Z,5.05
2022-09-09T15:02:28.345Z,5.00
2022-09-09T15:05:31.061Z,5.82
2022-09-09T15:08:33.317Z,5.05
2022-09-09T15:11:40.656Z,6.90
2022-09-09T15:14:42.708Z,6.50
2022-09-09T15:17:44.761Z,6.07
2022-09-09T15:20:48.903Z,6.43
2022-09-09T15:23:52.410Z,6.57
2022-09-09T15:26:55.207Z,5.85
2022-09-09T15:29:59.223Z,7.53
2022-09-09T15:33:01.688Z,6.90
2022-09-09T15:36:14.744Z,6.25
2022-09-09T15:39:18.694Z,9.45
2022-09-09T15:42:20.691Z,8.30
2022-09-09T15:45:22.976Z,8.23
2022-09-09T15:48:33.876Z,7.40
2022-09-09T15:51:44.739Z,6.88
2022-09-09T15:54:46.954Z,5.80
2022-09-09T15:57:49.819Z,6.55
2022-09-09T16:00:52.564Z,8.68
2022-09-09T16:03:55.274Z,7.32
2022-09-09T16:07:04.200Z,7.75
2022-09-09T16:10:07.195Z,7.10
2022-09-09T16:13:09.822Z,7.22
2022-09-09T16:16:13.437Z,7.10
2022-09-09T16:19:15.797Z,7.78
2022-09-09T16:22:19.420Z,8.30
2022-09-09T16:25:22.311Z,6.40
2022-09-09T16:28:24.456Z,7.80
2022-09-09T16:31:27.986Z,6.32
2022-09-09T16:34:30.911Z,6.57
2022-09-09T16:37:35.184Z,6.88
2022-09-09T16:40:38.500Z,6.07
2022-09-09T16:43:41.963Z,7.07
2022-09-09T16:46:49.932Z,5.88
2022-09-09T16:49:52.421Z,7.32
2022-09-09T16:52:54.525Z,6.47
2022-09-09T16:55:56.597Z,6.78
2022-09-09T16:59:00.865Z,7.30
2022-09-09T17:02:05.341Z,7.20
2022-09-09T17:05:07.814Z,7.28
2022-09-09T17:08:10.429Z,7.15
2022-09-09T17:11:17.281Z,7.53
2022-09-09T17:14:23.675Z,8.48
2022-09-09T17:17:32.021Z,8.80
2022-09-09T17:20:46.400Z,8.25
2022-09-09T17:23:50.709Z,7.80
2022-09-09T17:26:53.119Z,6.78
2022-09-09T17:29:55.510Z,6.50
2022-09-09T17:32:57.544Z,7.05
2022-09-09T17:36:00.206Z,6.18
2022-09-09T17:39:04.062Z,6.03
2022-09-09T17:42:08.610Z,5.35
2022-09-09T17:45:11.161Z,5.05
2022-09-09T17:48:13.470Z,5.70
2022-09-09T17:51:20.477Z,5.43
2022-09-09T17:54:22.854Z,5.35
2022-09-09T17:57:26.238Z,6.13
2022-09-09T18:00:31.483Z,6.20
2022-09-09T18:03:37.106Z,5.28
2022-09-09T18:06:41.851Z,5.13
2022-09-09T18:09:44.076Z,5.57
2022-09-09T18:12:46.245Z,5.78
2022-09-09T18:15:49.887Z,5.05
2022-09-09T18:18:52.958Z,4.93
2022-09-09T18:21:57.546Z,5.03
2022-09-09T18:25:02.609Z,5.03
2022-09-09T18:28:04.769Z,5.22
2022-09-09T18:31:12.681Z,5.40
2022-09-09T18:34:18.031Z,4.78
2022-09-09T18:37:20.460Z,4.55
2022-09-09T18:40:22.576Z,5.15
2022-09-09T18:43:24.742Z,4.97
2022-09-09T18:46:30.926Z,5.68
2022-09-09T18:49:33.428Z,6.20
2022-09-09T18:52:35.871Z,6.40
2022-09-09T18:55:38.006Z,5.65
2022-09-09T18:58:40.609Z,6.93
2022-09-09T19:01:42.890Z,7.10
2022-09-09T19:04:45.134Z,6.35
2022-09-09T19:07:47.269Z,5.55
2022-09-09T19:10:49.380Z,7.00
2022-09-09T19:13:53.801Z,7.57
2022-09-09T19:16:56.699Z,7.80
2022-09-09T19:19:58.793Z,5.97
2022-09-09T19:23:00.811Z,6.47
2022-09-09T19:26:03.715Z,6.30
2022-09-09T19:29:05.903Z,5.90
2022-09-09T19:35:31.483Z,9.55
2022-09-09T19:38:34.451Z,7.05
2022-09-09T19:41:37.175Z,6.93
2022-09-09T19:44:39.845Z,8.43
2022-09-09T19:47:43.013Z,6.07
2022-09-09T19:50:45.081Z,7.18
2022-09-09T19:53:53.677Z,6.32
2022-09-09T19:56:55.731Z,6.82
2022-09-09T19:59:57.799Z,7.25
2022-09-09T20:03:18.144Z,6.97
2022-09-09T20:06:24.272Z,5.97
2022-09-09T20:09:29.165Z,5.88
2022-09-09T20:12:31.252Z,5.57
2022-09-09T20:15:33.442Z,5.53
2022-09-09T20:18:38.572Z,4.40
2022-09-09T20:21:47.611Z,5.07
2022-09-09T20:24:50.085Z,5.57
2022-09-09T20:27:53.135Z,4.75
2022-09-09T20:30:55.718Z,4.40
2022-09-09T20:33:58.491Z,4.30
2022-09-09T20:37:02.808Z,4.03
2022-09-09T20:40:05.271Z,4.20
2022-09-09T20:43:07.340Z,4.30
2022-09-09T20:46:10.055Z,4.18
2022-09-09T20:49:12.258Z,4.63
2022-09-09T20:52:15.335Z,4.10
2022-09-09T20:55:17.334Z,4.38
2022-09-09T20:58:19.335Z,3.38
2022-09-09T21:01:22.040Z,3.80
2022-09-09T21:04:25.225Z,5.07
2022-09-09T21:07:29.101Z,4.00
2022-09-09T21:10:31.489Z,6.03
2022-09-09T21:13:37.151Z,4.68
2022-09-09T21:16:39.318Z,4.53
2022-09-09T21:19:41.390Z,4.63
2022-09-09T21:22:43.329Z,4.70
2022-09-09T21:25:45.739Z,3.95
2022-09-09T21:28:47.826Z,4.10
2022-09-09T21:31:49.914Z,4.88
2022-09-09T21:34:52.079Z,4.40
2022-09-09T21:37:54.474Z,4.07
2022-09-09T21:40:56.490Z,4.05
2022-09-09T21:43:59.041Z,4.05
2022-09-09T21:47:01.101Z,4.47
2022-09-09T21:50:03.225Z,3.80
2022-09-09T21:53:06.099Z,3.65
2022-09-09T21:56:11.840Z,5.28
2022-09-09T21:59:13.847Z,4.38
2022-09-09T22:02:17.155Z,5.32
2022-09-09T22:05:19.255Z,3.45
2022-09-09T22:08:21.821Z,3.13
2022-09-09T22:11:24.408Z,3.17
2022-09-09T22:14:27.539Z,3.28
2022-09-09T22:17:30.318Z,3.25
2022-09-09T22:20:33.983Z,4.07
2022-09-09T22:23:36.827Z,3.65
2022-09-09T22:26:39.438Z,3.00
2022-09-09T22:29:41.880Z,3.15
2022-09-09T22:32:44.117Z,3.22
2022-09-09T22:35:46.172Z,3.20
2022-09-09T22:38:49.715Z,3.10
2022-09-09T22:41:51.783Z,3.25
2022-09-09T22:44:53.819Z,3.25
2022-09-09T22:47:57.292Z,2.47
2022-09-09T22:51:11.384Z,3.25
2022-09-09T22:54:13.565Z,3.15
2022-09-09T22:57:15.618Z,3.15
2022-09-09T23:00:18.569Z,3.47
2022-09-09T23:03:22.643Z,2.45
2022-09-09T23:06:27.509Z,3.08
2022-09-09T23:09:29.557Z,2.88
2022-09-09T23:12:31.739Z,2.70
2022-09-09T23:15:33.783Z,2.67
2022-09-09T23:18:37.256Z,3.50
2022-09-09T23:21:41.215Z,3.20
2022-09-09T23:24:43.394Z,3.67
2022-09-09T23:27:45.847Z,3.28
2022-09-09T23:30:47.977Z,3.38
2022-09-09T23:33:50.079Z,3.75
2022-09-09T23:36:53.741Z,2.95
2022-09-09T23:39:55.772Z,3.60
2022-09-09T23:42:57.825Z,3.28
2022-09-09T23:46:01.430Z,3.50
2022-09-09T23:49:04.580Z,3.33
2022-09-09T23:52:07.110Z,3.70
2022-09-09T23:55:09.450Z,3.47
2022-09-09T23:58:11.637Z,3.10
